createdAt,value
2023-05-21T00:00:25.284Z,12.40
2023-05-21T00:02:52.088Z,15.27
2023-05-21T00:05:19.017Z,12.88
2023-05-21T00:07:47.223Z,13.88
2023-05-21T00:10:14.148Z,13.43
2023-05-21T00:12:41.799Z,13.20
2023-05-21T00:15:09.464Z,12.25
2023-05-21T00:17:37.053Z,13.73
2023-05-21T00:20:08.696Z,14.00
2023-05-21T00:22:36.297Z,12.63
2023-05-21T00:25:03.572Z,12.10
2023-05-21T00:27:30.384Z,13.38
2023-05-21T00:29:57.116Z,11.57
2023-05-21T00:32:24.036Z,12.52
2023-05-21T00:34:50.853Z,13.63
2023-05-21T00:37:17.602Z,17.27
2023-05-21T00:39:44.301Z,14.60
2023-05-21T00:42:12.294Z,13.65
2023-05-21T00:44:39.323Z,12.48
2023-05-21T00:47:06.666Z,12.13
2023-05-21T00:49:33.451Z,13.38
2023-05-21T00:52:01.836Z,14.82
2023-05-21T00:54:30.817Z,15.25
2023-05-21T00:56:58.190Z,14.57
2023-05-21T00:59:26.498Z,14.45
2023-05-21T01:01:56.320Z,14.07
2023-05-21T01:04:26.428Z,15.40
2023-05-21T01:06:53.524Z,14.02
2023-05-21T01:09:20.518Z,14.32
2023-05-21T01:11:50.699Z,12.57
2023-05-21T01:14:19.753Z,15.35
2023-05-21T01:16:52.440Z,14.40
2023-05-21T01:19:22.149Z,15.05
2023-05-21T01:21:56.284Z,15.07
2023-05-21T01:24:23.203Z,13.85
2023-05-21T01:26:50.026Z,14.18
2023-05-21T01:29:16.864Z,15.10
2023-05-21T01:31:59.267Z,14.65
2023-05-21T01:34:34.789Z,14.43
2023-05-21T01:37:13.512Z,12.70
2023-05-21T01:39:44.932Z,14.10
2023-05-21T01:42:13.408Z,14.75
2023-05-21T01:44:40.669Z,15.70
2023-05-21T01:47:07.432Z,17.52
2023-05-21T01:49:34.675Z,15.52
2023-05-21T01:52:02.602Z,15.63
2023-05-21T01:54:29.476Z,16.13
2023-05-21T01:56:56.844Z,14.20
2023-05-21T01:59:23.603Z,14.77
2023-05-21T02:01:50.351Z,15.15
2023-05-21T02:04:17.055Z,14.77
2023-05-21T02:06:44.462Z,13.93
2023-05-21T02:09:11.342Z,16.15
2023-05-21T02:11:38.048Z,14.23
2023-05-21T02:14:04.805Z,15.32
2023-05-21T02:16:31.745Z,16.48
2023-05-21T02:19:00.466Z,15.73
2023-05-21T02:21:27.434Z,17.55
2023-05-21T02:23:54.207Z,16.48
2023-05-21T02:26:22.498Z,16.50
2023-05-21T02:28:49.314Z,16.02
2023-05-21T02:31:16.256Z,16.67
2023-05-21T02:33:43.035Z,14.57
2023-05-21T02:36:13.114Z,17.75
2023-05-21T02:38:43.364Z,16.80
2023-05-21T02:41:11.533Z,16.52
2023-05-21T02:43:38.464Z,16.25
2023-05-21T02:46:06.778Z,16.88
2023-05-21T02:48:33.531Z,20.13
2023-05-21T02:51:00.162Z,15.93
2023-05-21T02:53:27.008Z,17.48
2023-05-21T02:55:53.789Z,16.00
2023-05-21T02:58:23.410Z,16.10
2023-05-21T03:00:50.053Z,15.02
2023-05-21T03:03:16.954Z,17.27
2023-05-21T03:05:43.747Z,15.02
2023-05-21T03:08:10.628Z,18.75
2023-05-21T03:10:37.362Z,18.63
2023-05-21T03:13:08.914Z,17.83
2023-05-21T03:15:39.320Z,15.65
2023-05-21T03:18:06.467Z,17.15
2023-05-21T03:20:33.401Z,18.42
2023-05-21T03:23:00.481Z,16.77
2023-05-21T03:25:27.249Z,17.70
2023-05-21T03:27:53.903Z,20.00
2023-05-21T03:30:20.786Z,21.65
2023-05-21T03:32:47.847Z,19.27
2023-05-21T03:35:14.697Z,18.25
2023-05-21T03:37:41.521Z,19.27
2023-05-21T03:40:08.739Z,18.77
2023-05-21T03:42:35.494Z,18.20
2023-05-21T03:45:04.209Z,17.23
2023-05-21T03:47:31.028Z,18.00
2023-05-21T03:49:57.821Z,17.85
2023-05-21T03:52:24.517Z,18.40
2023-05-21T03:54:51.243Z,20.10
2023-05-21T03:57:17.970Z,19.60
2023-05-21T03:59:45.176Z,20.55
2023-05-21T04:02:11.931Z,19.15
2023-05-21T04:04:38.768Z,22.13
2023-05-21T04:07:05.664Z,19.65
2023-05-21T04:09:32.937Z,18.13
2023-05-21T04:12:00.597Z,21.13
2023-05-21T04:14:27.280Z,19.98
2023-05-21T04:16:54.035Z,21.63
2023-05-21T04:19:20.827Z,19.30
2023-05-21T04:21:47.605Z,19.90
2023-05-21T04:24:14.483Z,18.25
2023-05-21T04:26:42.253Z,21.27
2023-05-21T04:29:09.915Z,19.58
2023-05-21T04:31:36.846Z,21.52
2023-05-21T04:34:03.722Z,19.10
2023-05-21T04:36:30.457Z,21.17
2023-05-21T04:38:57.196Z,20.08
2023-05-21T04:41:23.888Z,21.63
2023-05-21T04:43:55.026Z,18.98
2023-05-21T04:46:25.395Z,19.77
2023-05-21T04:48:55.400Z,19.58
2023-05-21T04:51:24.507Z,20.77
2023-05-21T04:53:51.264Z,19.23
2023-05-21T04:56:18.563Z,19.88
2023-05-21T04:58:49.276Z,22.08
2023-05-21T05:01:16.286Z,21.98
2023-05-21T05:03:43.214Z,20.40
2023-05-21T05:06:09.948Z,16.50
2023-05-21T05:08:36.738Z,18.48
2023-05-21T05:11:03.471Z,21.42
2023-05-21T05:13:30.395Z,19.85
2023-05-21T05:15:57.550Z,23.65
2023-05-21T05:18:24.400Z,22.25
2023-05-21T05:20:51.271Z,22.42
2023-05-21T05:23:18.088Z,19.50
2023-05-21T05:25:44.848Z,20.80
2023-05-21T05:28:11.577Z,22.20
2023-05-21T05:30:38.399Z,17.83
2023-05-21T05:33:05.162Z,21.52
2023-05-21T05:35:31.937Z,22.67
2023-05-21T05:37:58.757Z,22.35
2023-05-21T05:40:25.567Z,21.08
2023-05-21T05:42:52.761Z,19.35
2023-05-21T05:45:20.093Z,24.08
2023-05-21T05:47:46.931Z,21.70
2023-05-21T05:50:13.768Z,17.83
2023-05-21T05:52:40.496Z,19.00
2023-05-21T05:55:08.931Z,20.90
2023-05-21T05:57:36.038Z,21.83
2023-05-21T06:00:03.949Z,20.85
2023-05-21T06:02:30.861Z,19.45
2023-05-21T06:04:58.350Z,18.88
2023-05-21T06:07:25.103Z,20.83
2023-05-21T06:09:51.766Z,21.23
2023-05-21T06:12:18.582Z,20.40
2023-05-21T06:14:46.262Z,18.90
2023-05-21T06:17:13.328Z,19.75
2023-05-21T06:19:40.102Z,20.55
2023-05-21T06:22:06.876Z,19.67
2023-05-21T06:24:33.688Z,21.48
2023-05-21T06:27:00.929Z,21.02
2023-05-21T06:29:27.729Z,20.40
2023-05-21T06:31:54.478Z,22.13
2023-05-21T06:34:21.278Z,17.88
2023-05-21T06:36:48.572Z,18.55
2023-05-21T06:39:15.302Z,23.08
2023-05-21T06:41:42.031Z,20.02
2023-05-21T06:44:08.770Z,20.38
2023-05-21T06:46:35.880Z,19.35
2023-05-21T06:49:02.731Z,19.45
2023-05-21T06:51:29.392Z,20.55
2023-05-21T06:53:56.193Z,20.25
2023-05-21T06:56:23.008Z,21.02
2023-05-21T06:58:49.713Z,20.98
2023-05-21T07:01:16.665Z,21.40
2023-05-21T07:03:43.534Z,20.70
2023-05-21T07:06:10.269Z,20.58
2023-05-21T07:08:36.986Z,20.13
2023-05-21T07:11:03.753Z,21.27
2023-05-21T07:13:30.585Z,20.50
2023-05-21T07:15:57.340Z,20.67
2023-05-21T07:18:24.085Z,19.48
2023-05-21T07:20:50.905Z,21.48
2023-05-21T07:23:17.650Z,17.80
2023-05-21T07:25:44.450Z,19.05
2023-05-21T07:28:11.210Z,23.00
2023-05-21T07:30:38.024Z,24.33
2023-05-21T07:33:04.845Z,18.77
2023-05-21T07:35:31.641Z,18.38
2023-05-21T07:37:58.407Z,19.85
2023-05-21T07:40:25.329Z,18.75
2023-05-21T07:42:52.278Z,22.23
2023-05-21T07:45:19.035Z,19.85
2023-05-21T07:47:46.859Z,20.23
2023-05-21T07:50:14.776Z,18.70
2023-05-21T07:52:41.654Z,18.63
2023-05-21T07:55:09.332Z,22.27
2023-05-21T07:57:37.067Z,20.65
2023-05-21T08:00:05.682Z,20.52
2023-05-21T08:02:32.489Z,23.35
2023-05-21T08:04:59.284Z,20.77
2023-05-21T08:07:26.588Z,19.33
2023-05-21T08:09:54.446Z,24.40
2023-05-21T08:12:21.112Z,19.63
2023-05-21T08:14:47.946Z,20.55
2023-05-21T08:17:16.141Z,18.92
2023-05-21T08:19:43.162Z,19.92
2023-05-21T08:22:10.157Z,18.85
2023-05-21T08:24:36.942Z,17.73
2023-05-21T08:27:03.879Z,19.05
2023-05-21T08:29:31.759Z,21.38
2023-05-21T08:31:58.521Z,20.70
2023-05-21T08:34:30.807Z,18.88
2023-05-21T08:36:58.173Z,19.25
2023-05-21T08:39:24.909Z,20.23
2023-05-21T08:41:57.561Z,18.38
2023-05-21T08:44:27.200Z,23.85
2023-05-21T08:46:56.347Z,18.00
2023-05-21T08:49:28.898Z,20.58
2023-05-21T08:51:56.279Z,20.20
2023-05-21T08:54:23.315Z,19.08
2023-05-21T08:56:50.516Z,18.85
2023-05-21T08:59:20.024Z,18.33
2023-05-21T09:01:47.479Z,21.13
2023-05-21T09:04:21.324Z,18.00
2023-05-21T09:06:48.980Z,16.35
2023-05-21T09:09:27.926Z,17.60
2023-05-21T09:11:54.831Z,20.10
2023-05-21T09:14:23.118Z,20.30
2023-05-21T09:16:52.968Z,18.63
2023-05-21T09:19:23.082Z,16.05
2023-05-21T09:21:55.093Z,18.38
2023-05-21T09:24:24.970Z,16.38
2023-05-21T09:26:52.426Z,17.48
2023-05-21T09:29:19.293Z,18.83
2023-05-21T09:31:46.159Z,17.95
2023-05-21T09:34:14.220Z,19.23
2023-05-21T09:36:41.101Z,17.92
2023-05-21T09:39:08.601Z,17.73
2023-05-21T09:41:36.777Z,16.15
2023-05-21T09:44:04.149Z,19.50
2023-05-21T09:46:41.390Z,16.35
2023-05-21T09:49:23.504Z,17.17
2023-05-21T09:51:50.284Z,18.58
2023-05-21T09:54:17.013Z,16.77
2023-05-21T09:56:43.811Z,16.42
2023-05-21T09:59:10.575Z,17.13
2023-05-21T10:01:38.721Z,18.45
2023-05-21T10:04:09.409Z,18.60
2023-05-21T10:06:42.031Z,16.77
2023-05-21T10:09:11.195Z,17.70
2023-05-21T10:11:39.757Z,19.70
2023-05-21T10:14:08.990Z,18.23
2023-05-21T10:16:36.941Z,18.50
2023-05-21T10:19:10.885Z,17.38
2023-05-21T10:21:39.802Z,20.35
2023-05-21T10:24:08.415Z,21.60
2023-05-21T10:26:36.620Z,16.83
2023-05-21T10:29:03.594Z,16.83
2023-05-21T10:31:31.779Z,17.30
2023-05-21T10:33:59.184Z,16.83
2023-05-21T10:36:27.376Z,16.75
2023-05-21T10:38:55.130Z,15.80
2023-05-21T10:41:23.721Z,17.98
2023-05-21T10:43:53.198Z,15.52
2023-05-21T10:46:28.889Z,17.05
2023-05-21T10:49:17.211Z,19.30
2023-05-21T10:51:50.005Z,17.08
2023-05-21T10:54:31.787Z,19.08
2023-05-21T10:57:09.867Z,18.52
2023-05-21T10:59:41.019Z,17.60
2023-05-21T11:02:09.170Z,18.20
2023-05-21T11:04:39.842Z,17.95
2023-05-21T11:07:06.844Z,20.52
2023-05-21T11:09:33.587Z,17.48
2023-05-21T11:12:01.004Z,19.42
2023-05-21T11:14:43.018Z,17.75
2023-05-21T11:17:11.559Z,17.85
2023-05-21T11:19:40.983Z,17.13
2023-05-21T11:22:21.315Z,16.60
2023-05-21T11:24:50.637Z,18.45
2023-05-21T11:27:40.956Z,17.15
2023-05-21T11:30:09.685Z,18.88
2023-05-21T11:33:01.409Z,18.92
2023-05-21T11:35:28.239Z,17.33
2023-05-21T11:37:54.995Z,20.17
2023-05-21T11:40:26.380Z,18.10
2023-05-21T11:42:57.011Z,14.68
2023-05-21T11:45:28.786Z,17.50
2023-05-21T11:47:56.448Z,17.65
2023-05-21T11:50:23.788Z,15.63
2023-05-21T11:52:50.923Z,15.85
2023-05-21T11:55:22.626Z,14.60
2023-05-21T11:57:53.450Z,16.02
2023-05-21T12:00:20.209Z,17.23
2023-05-21T12:02:52.592Z,17.90
2023-05-21T12:05:19.832Z,16.42
2023-05-21T12:07:50.959Z,16.05
2023-05-21T12:10:21.789Z,18.40
2023-05-21T12:12:55.451Z,18.23
2023-05-21T12:15:24.736Z,15.43
2023-05-21T12:17:53.087Z,15.27
2023-05-21T12:20:20.844Z,16.77
2023-05-21T12:22:49.267Z,14.20
2023-05-21T12:25:20.027Z,15.70
2023-05-21T12:27:47.655Z,16.48
2023-05-21T12:30:14.880Z,14.35
2023-05-21T12:32:44.191Z,16.30
2023-05-21T12:35:20.998Z,15.65
2023-05-21T12:37:48.247Z,15.77
2023-05-21T12:40:14.991Z,16.85
2023-05-21T12:42:44.377Z,14.35
2023-05-21T12:45:11.633Z,14.15
2023-05-21T12:47:38.682Z,13.75
2023-05-21T12:50:11.605Z,13.98
2023-05-21T12:52:41.112Z,15.68
2023-05-21T12:55:10.311Z,13.85
2023-05-21T12:57:39.118Z,13.43
2023-05-21T13:00:07.421Z,15.15
2023-05-21T13:02:34.174Z,16.55
2023-05-21T13:05:06.473Z,13.45
2023-05-21T13:07:35.781Z,14.40
2023-05-21T13:10:03.844Z,13.52
2023-05-21T13:12:31.598Z,14.18
2023-05-21T13:15:00.822Z,14.93
2023-05-21T13:17:28.370Z,15.80
2023-05-21T13:20:12.123Z,15.68
2023-05-21T13:22:46.938Z,15.20
2023-05-21T13:25:21.449Z,15.23
2023-05-21T13:27:53.205Z,16.00
2023-05-21T13:30:21.223Z,15.52
2023-05-21T13:32:48.700Z,15.07
2023-05-21T13:35:16.629Z,14.63
2023-05-21T13:37:44.015Z,13.50
2023-05-21T13:40:12.146Z,14.95
2023-05-21T13:42:38.928Z,15.13
2023-05-21T13:45:10.932Z,15.43
2023-05-21T13:47:40.249Z,13.75
2023-05-21T13:50:08.426Z,15.73
2023-05-21T13:52:35.588Z,12.30
2023-05-21T13:55:02.408Z,14.45
2023-05-21T13:57:30.892Z,13.95
2023-05-21T13:59:58.633Z,14.90
2023-05-21T14:02:25.555Z,12.88
2023-05-21T14:04:52.473Z,18.88
2023-05-21T14:07:19.265Z,13.02
2023-05-21T14:09:47.543Z,14.13
2023-05-21T14:12:14.314Z,14.52
2023-05-21T14:14:41.518Z,14.60
2023-05-21T14:17:08.257Z,14.27
2023-05-21T14:19:35.041Z,15.85
2023-05-21T14:22:01.902Z,14.50
2023-05-21T14:24:28.662Z,12.57
2023-05-21T14:26:55.412Z,14.68
2023-05-21T14:29:22.390Z,13.48
2023-05-21T14:31:49.247Z,13.32
2023-05-21T14:34:16.024Z,14.80
2023-05-21T14:36:42.779Z,14.18
2023-05-21T14:39:09.552Z,15.43
2023-05-21T14:41:38.902Z,13.90
2023-05-21T14:44:05.754Z,12.82
2023-05-21T14:46:32.966Z,13.23
2023-05-21T14:49:00.686Z,13.05
2023-05-21T14:51:27.497Z,12.63
2023-05-21T14:53:54.397Z,14.13
2023-05-21T14:56:22.118Z,13.95
2023-05-21T14:58:49.281Z,14.05
2023-05-21T15:01:16.244Z,12.95
2023-05-21T15:03:43.388Z,13.15
2023-05-21T15:06:10.364Z,12.90
2023-05-21T15:08:37.092Z,13.88
2023-05-21T15:11:03.791Z,13.32
2023-05-21T15:13:30.737Z,14.02
2023-05-21T15:15:57.644Z,13.68
2023-05-21T15:18:24.977Z,13.50
2023-05-21T15:20:51.872Z,15.27
2023-05-21T15:23:19.102Z,12.32
2023-05-21T15:25:46.092Z,12.98
2023-05-21T15:28:13.174Z,12.38
2023-05-21T15:30:40.526Z,13.48
2023-05-21T15:33:07.405Z,13.27
2023-05-21T15:35:36.628Z,12.10
2023-05-21T15:38:03.834Z,14.52
2023-05-21T15:40:31.680Z,12.32
2023-05-21T15:42:58.518Z,12.77
2023-05-21T15:45:25.673Z,12.35
2023-05-21T15:47:52.690Z,13.05
2023-05-21T15:50:19.532Z,12.40
2023-05-21T15:52:46.393Z,14.07
2023-05-21T15:55:14.238Z,13.27
2023-05-21T15:57:41.326Z,14.50
2023-05-21T16:00:09.528Z,12.57
2023-05-21T16:02:37.037Z,15.95
2023-05-21T16:05:04.024Z,13.65
2023-05-21T16:07:30.809Z,16.63
2023-05-21T16:09:57.520Z,14.93
2023-05-21T16:12:24.338Z,15.40
2023-05-21T16:14:51.134Z,15.23
2023-05-21T16:17:19.721Z,13.10
2023-05-21T16:19:47.256Z,14.45
2023-05-21T16:22:14.352Z,14.70
2023-05-21T16:24:41.098Z,13.98
2023-05-21T16:27:07.863Z,15.05
2023-05-21T16:29:34.722Z,16.20
2023-05-21T16:32:01.684Z,15.25
2023-05-21T16:34:28.439Z,14.15
2023-05-21T16:36:55.231Z,15.55
2023-05-21T16:39:22.028Z,15.48
2023-05-21T16:41:48.801Z,15.13
2023-05-21T16:44:15.537Z,13.38
2023-05-21T16:46:42.494Z,13.95
2023-05-21T16:49:09.274Z,13.52
2023-05-21T16:51:36.219Z,13.65
2023-05-21T16:54:04.731Z,15.35
2023-05-21T16:56:31.857Z,14.77
2023-05-21T16:58:58.601Z,13.90
2023-05-21T17:01:25.634Z,15.05
2023-05-21T17:03:53.035Z,13.35
2023-05-21T17:06:20.073Z,13.15
2023-05-21T17:08:47.021Z,13.52
2023-05-21T17:11:13.720Z,14.82
2023-05-21T17:13:40.508Z,12.48
2023-05-21T17:16:07.346Z,14.30
2023-05-21T17:18:56.910Z,13.65
2023-05-21T17:21:33.774Z,14.77
2023-05-21T17:24:00.748Z,14.82
2023-05-21T17:26:27.446Z,13.02
2023-05-21T17:28:54.193Z,13.80
2023-05-21T17:31:22.189Z,12.68
2023-05-21T17:33:49.015Z,12.68
2023-05-21T17:36:16.266Z,12.45
2023-05-21T17:38:43.922Z,15.80
2023-05-21T17:41:10.866Z,13.10
2023-05-21T17:43:37.588Z,14.88
2023-05-21T17:46:04.350Z,13.75
2023-05-21T17:48:31.062Z,15.95
2023-05-21T17:50:58.014Z,12.52
2023-05-21T17:53:24.829Z,12.88
2023-05-21T17:55:51.525Z,13.00
2023-05-21T17:58:18.240Z,13.15
2023-05-21T18:00:45.055Z,12.30
2023-05-21T18:03:11.918Z,13.57
2023-05-21T18:05:38.913Z,12.85
2023-05-21T18:08:06.973Z,12.52
2023-05-21T18:10:33.869Z,11.88
2023-05-21T18:13:00.733Z,12.13
2023-05-21T18:15:27.555Z,12.77
2023-05-21T18:17:55.987Z,12.90
2023-05-21T18:20:22.806Z,13.13
2023-05-21T18:22:49.531Z,15.20
2023-05-21T18:25:16.462Z,12.27
2023-05-21T18:27:43.183Z,12.38
2023-05-21T18:30:10.514Z,11.48
2023-05-21T18:32:40.331Z,13.00
2023-05-21T18:35:10.616Z,12.32
2023-05-21T18:37:38.664Z,11.52
2023-05-21T18:40:06.077Z,12.63
2023-05-21T18:42:32.966Z,12.18
2023-05-21T18:45:07.413Z,11.45
2023-05-21T18:47:34.460Z,11.88
2023-05-21T18:50:01.296Z,13.02
2023-05-21T18:52:28.048Z,13.68
2023-05-21T18:54:55.914Z,10.65
2023-05-21T18:57:22.688Z,12.98
2023-05-21T18:59:49.469Z,13.15
2023-05-21T19:02:16.974Z,13.80
2023-05-21T19:04:44.011Z,13.63
2023-05-21T19:07:10.989Z,12.70
2023-05-21T19:09:37.856Z,14.77
2023-05-21T19:12:04.865Z,13.77
2023-05-21T19:14:31.659Z,12.15
2023-05-21T19:16:58.489Z,13.32
2023-05-21T19:19:25.382Z,12.65
2023-05-21T19:21:52.889Z,13.20
2023-05-21T19:24:19.541Z,15.10
2023-05-21T19:26:46.366Z,15.27
2023-05-21T19:29:13.158Z,14.35
2023-05-21T19:31:39.921Z,14.95
2023-05-21T19:34:10.501Z,13.30
2023-05-21T19:36:51.677Z,14.25
2023-05-21T19:39:19.511Z,12.98
2023-05-21T19:41:46.289Z,14.43
2023-05-21T19:44:13.034Z,14.40
2023-05-21T19:46:39.762Z,14.13
2023-05-21T19:49:06.411Z,13.85
2023-05-21T19:51:33.198Z,14.55
2023-05-21T19:53:59.946Z,14.82
2023-05-21T19:56:26.722Z,12.90
2023-05-21T19:58:53.453Z,14.40
2023-05-21T20:01:21.699Z,13.75
2023-05-21T20:03:49.572Z,14.18
2023-05-21T20:06:18.701Z,14.57
2023-05-21T20:08:45.724Z,14.70
2023-05-21T20:11:12.748Z,13.45
2023-05-21T20:13:40.832Z,15.73
2023-05-21T20:16:07.721Z,15.70
2023-05-21T20:18:34.466Z,14.05
2023-05-21T20:21:03.844Z,14.40
2023-05-21T20:23:30.599Z,13.88
2023-05-21T20:25:57.323Z,14.20
2023-05-21T20:28:24.370Z,14.25
2023-05-21T20:30:59.674Z,15.57
2023-05-21T20:33:27.949Z,13.82
2023-05-21T20:35:54.778Z,12.20
2023-05-21T20:38:21.599Z,14.23
2023-05-21T20:40:48.401Z,12.48
2023-05-21T20:43:15.213Z,12.05
2023-05-21T20:45:43.498Z,17.10
2023-05-21T20:48:11.894Z,12.70
2023-05-21T20:50:40.972Z,12.65
2023-05-21T20:53:08.403Z,17.05
2023-05-21T20:55:35.152Z,14.32
2023-05-21T20:58:05.282Z,14.07
2023-05-21T21:00:33.329Z,13.73
2023-05-21T21:03:01.758Z,15.85
2023-05-21T21:05:28.586Z,14.60
2023-05-21T21:07:56.111Z,14.35
2023-05-21T21:10:22.936Z,15.35
2023-05-21T21:12:49.680Z,14.43
2023-05-21T21:15:16.578Z,14.10
2023-05-21T21:17:43.391Z,13.38
2023-05-21T21:20:12.442Z,14.50
2023-05-21T21:22:39.626Z,15.00
2023-05-21T21:25:06.789Z,14.68
2023-05-21T21:27:33.574Z,14.15
2023-05-21T21:30:00.293Z,15.15
2023-05-21T21:32:27.283Z,14.43
2023-05-21T21:34:53.953Z,14.55
2023-05-21T21:37:20.686Z,13.00
2023-05-21T21:39:47.348Z,14.93
2023-05-21T21:42:14.210Z,14.75
2023-05-21T21:44:41.004Z,14.60
2023-05-21T21:47:07.756Z,13.77
2023-05-21T21:49:34.508Z,13.55
2023-05-21T21:52:01.400Z,14.60
2023-05-21T21:54:28.336Z,13.20
2023-05-21T21:56:55.115Z,13.68
2023-05-21T21:59:22.407Z,14.65
2023-05-21T22:01:49.348Z,13.75
2023-05-21T22:04:16.289Z,14.20
2023-05-21T22:06:45.277Z,15.77
2023-05-21T22:09:12.336Z,17.05
2023-05-21T22:11:39.231Z,14.85
2023-05-21T22:14:06.127Z,13.82
2023-05-21T22:16:36.544Z,13.32
2023-05-21T22:19:03.581Z,13.63
2023-05-21T22:21:32.825Z,13.80
2023-05-21T22:24:00.161Z,14.95
2023-05-21T22:26:26.949Z,15.50
2023-05-21T22:28:53.665Z,16.83
2023-05-21T22:31:20.884Z,15.10
2023-05-21T22:33:47.585Z,16.20
2023-05-21T22:36:14.298Z,15.18
2023-05-21T22:38:40.996Z,18.15
2023-05-21T22:41:08.547Z,15.95
2023-05-21T22:43:35.696Z,14.88
2023-05-21T22:46:02.938Z,14.60
2023-05-21T22:48:30.688Z,15.35
2023-05-21T22:51:01.716Z,12.95
2023-05-21T22:53:28.528Z,13.73
2023-05-21T22:55:55.230Z,13.90
2023-05-21T22:58:21.892Z,12.90
2023-05-21T23:00:48.660Z,15.05
2023-05-21T23:03:16.831Z,15.38
2023-05-21T23:05:43.827Z,15.40
2023-05-21T23:08:10.682Z,15.48
2023-05-21T23:10:37.665Z,15.15
2023-05-21T23:13:04.712Z,14.60
2023-05-21T23:15:31.424Z,12.38
2023-05-21T23:17:58.282Z,15.32
2023-05-21T23:20:24.974Z,16.33
2023-05-21T23:22:52.424Z,13.68
2023-05-21T23:25:19.162Z,15.95
2023-05-21T23:27:45.993Z,14.45
2023-05-21T23:30:12.972Z,14.82
2023-05-21T23:32:39.764Z,15.35
2023-05-21T23:35:08.149Z,14.20
2023-05-21T23:37:34.934Z,14.63
2023-05-21T23:40:01.713Z,15.70
2023-05-21T23:42:28.451Z,14.27
2023-05-21T23:44:55.322Z,15.52
2023-05-21T23:47:22.092Z,14.82
2023-05-21T23:49:48.843Z,13.82
2023-05-21T23:52:17.259Z,15.52
2023-05-21T23:54:44.537Z,14.55
2023-05-21T23:57:11.495Z,15.27
2023-05-21T23:59:38.234Z,14.95
